Time;durP1;ratioP1;P1;durP2;ratioP2;P2;SDS_P1;SDS_P2;PMS_P1;PMS_P2;Temp;Humidity;BMP_temperature;BMP_pressure;BME280_temperature;BME280_humidity;BME280_pressure;Samples;Min_cycle;Max_cycle;Signal;HPM_P1;HPM_P2
2023/10/25 00:01:45;;;;;;;5.53;2.85;;;;;;;;;;5059669;28;20055;-68
2023/10/25 00:04:12;;;;;;;12.00;3.22;;;;;;;;;;5065984;28;20514;-66
2023/10/25 00:06:39;;;;;;;8.23;2.90;;;;;;;;;;5063609;28;20045;-67
2023/10/25 00:09:07;;;;;;;10.63;2.97;;;;;;;;;;5065334;28;20495;-67
2023/10/25 00:11:34;;;;;;;14.30;3.40;;;;;;;;;;5061008;28;20053;-66
2023/10/25 00:14:03;;;;;;;10.23;2.92;;;;;;;;;;5062745;28;20519;-67
2023/10/25 00:16:30;;;;;;;10.60;2.70;;;;;;;;;;5059064;28;20500;-66
2023/10/25 00:18:57;;;;;;;9.27;2.83;;;;;;;;;;5062577;28;20041;-66
2023/10/25 00:21:25;;;;;;;8.95;2.78;;;;;;;;;;5063317;28;20041;-66
2023/10/25 00:23:52;;;;;;;8.10;2.58;;;;;;;;;;5062624;28;20519;-66
2023/10/25 00:26:19;;;;;;;10.05;3.00;;;;;;;;;;5055653;28;20048;-67
2023/10/25 00:28:46;;;;;;;9.27;2.25;;;;;;;;;;5062284;28;20056;-66
2023/10/25 00:31:15;;;;;;;8.57;3.38;;;;;;;;;;5051868;28;20068;-66
2023/10/25 00:33:42;;;;;;;5.15;2.20;;;;;;;;;;5057137;28;20055;-66
2023/10/25 00:36:10;;;;;;;8.38;2.63;;;;;;;;;;5053939;28;20075;-66
2023/10/25 00:38:37;;;;;;;5.30;2.25;;;;;;;;;;5063272;28;20496;-67
2023/10/25 00:41:04;;;;;;;8.00;2.10;;;;;;;;;;5065401;28;20060;-66
2023/10/25 00:43:31;;;;;;;11.13;2.72;;;;;;;;;;5057599;28;20453;-69
2023/10/25 00:46:04;;;;;;;5.93;1.95;;;;;;;;;;5062104;28;20055;-68
2023/10/25 00:48:33;;;;;;;6.75;2.22;;;;;;;;;;5064102;28;20142;-68
2023/10/25 00:51:01;;;;;;;6.82;1.90;;;;;;;;;;5058232;28;20520;-66
2023/10/25 00:53:29;;;;;;;5.05;1.85;;;;;;;;;;5060409;28;20109;-66
2023/10/25 00:55:57;;;;;;;7.93;2.15;;;;;;;;;;5058932;28;20384;-66
2023/10/25 00:58:25;;;;;;;7.63;1.80;;;;;;;;;;5053401;28;20048;-68
2023/10/25 01:00:52;;;;;;;9.00;2.13;;;;;;;;;;5062909;28;20052;-66
2023/10/25 01:03:20;;;;;;;13.18;1.60;;;;;;;;;;5060014;28;20049;-66
2023/10/25 01:05:49;;;;;;;8.07;1.52;;;;;;;;;;5067056;28;20086;-67
2023/10/25 01:08:19;;;;;;;5.75;1.60;;;;;;;;;;5062889;28;20053;-66
2023/10/25 01:10:46;;;;;;;9.93;1.80;;;;;;;;;;5065757;28;20044;-66
2023/10/25 01:13:13;;;;;;;8.25;1.40;;;;;;;;;;5053772;28;20056;-66
2023/10/25 01:15:41;;;;;;;8.10;1.50;;;;;;;;;;5056008;28;20496;-66
2023/10/25 01:18:09;;;;;;;3.85;1.40;;;;;;;;;;5059590;28;20044;-68
2023/10/25 01:20:36;;;;;;;8.00;1.40;;;;;;;;;;5064993;28;20131;-66
2023/10/25 01:23:05;;;;;;;5.88;1.30;;;;;;;;;;5060696;28;20551;-67
2023/10/25 01:25:32;;;;;;;7.82;1.75;;;;;;;;;;5056992;28;20068;-67
2023/10/25 01:27:59;;;;;;;3.25;1.30;;;;;;;;;;5062799;28;20538;-66
2023/10/25 01:30:27;;;;;;;5.03;1.60;;;;;;;;;;5063742;28;20098;-66
2023/10/25 01:32:54;;;;;;;2.20;1.17;;;;;;;;;;5059747;28;20053;-66
2023/10/25 01:35:22;;;;;;;6.93;1.40;;;;;;;;;;5056794;28;20060;-66
2023/10/25 01:37:49;;;;;;;4.45;1.33;;;;;;;;;;5058976;28;20661;-67
2023/10/25 01:40:18;;;;;;;12.15;1.50;;;;;;;;;;5054609;28;20061;-68
2023/10/25 01:42:45;;;;;;;10.90;1.50;;;;;;;;;;5054526;28;20049;-66
2023/10/25 01:45:13;;;;;;;3.03;1.30;;;;;;;;;;5054080;28;20057;-66
2023/10/25 01:47:40;;;;;;;7.70;1.58;;;;;;;;;;5055808;28;20508;-66
2023/10/25 01:50:08;;;;;;;4.18;1.40;;;;;;;;;;5064967;28;20055;-67
2023/10/25 01:52:36;;;;;;;9.60;1.67;;;;;;;;;;5047391;28;20057;-66
2023/10/25 01:55:03;;;;;;;6.18;1.33;;;;;;;;;;5055928;28;20151;-66
2023/10/25 01:57:31;;;;;;;6.25;1.30;;;;;;;;;;5055763;28;20049;-67
2023/10/25 01:59:59;;;;;;;5.03;1.50;;;;;;;;;;5055231;28;20683;-66
2023/10/25 02:02:26;;;;;;;5.72;1.67;;;;;;;;;;5054567;28;20052;-67
2023/10/25 02:04:53;;;;;;;7.22;1.80;;;;;;;;;;5062078;28;20053;-66
2023/10/25 02:07:20;;;;;;;10.85;2.15;;;;;;;;;;5058881;28;20123;-66
2023/10/25 02:09:48;;;;;;;13.90;2.72;;;;;;;;;;5056095;28;20045;-67
2023/10/25 02:12:15;;;;;;;6.07;2.28;;;;;;;;;;5062582;28;20101;-66
2023/10/25 02:14:44;;;;;;;6.72;2.72;;;;;;;;;;5059730;28;20071;-66
2023/10/25 02:17:11;;;;;;;9.50;2.92;;;;;;;;;;5064942;28;20691;-66
2023/10/25 02:19:39;;;;;;;13.75;3.25;;;;;;;;;;5059303;28;20044;-67
2023/10/25 02:22:07;;;;;;;7.63;2.50;;;;;;;;;;5063856;28;20496;-67
2023/10/25 02:24:33;;;;;;;6.82;2.92;;;;;;;;;;5059502;28;20044;-66
2023/10/25 02:27:00;;;;;;;7.78;2.70;;;;;;;;;;5064608;28;20041;-66
2023/10/25 02:29:27;;;;;;;5.88;2.83;;;;;;;;;;5064013;28;20404;-67
2023/10/25 02:31:56;;;;;;;5.57;3.17;;;;;;;;;;5064064;28;20048;-66
2023/10/25 02:34:23;;;;;;;8.27;3.30;;;;;;;;;;5065108;28;20049;-66
2023/10/25 02:36:50;;;;;;;8.88;3.35;;;;;;;;;;5061446;28;20531;-66
2023/10/25 02:39:18;;;;;;;10.43;3.30;;;;;;;;;;5057815;28;20044;-66
2023/10/25 02:41:45;;;;;;;5.30;3.05;;;;;;;;;;5059377;28;20495;-68
2023/10/25 02:44:12;;;;;;;8.13;3.60;;;;;;;;;;5065425;28;20059;-66
2023/10/25 02:46:40;;;;;;;11.07;3.30;;;;;;;;;;5062774;28;20063;-66
2023/10/25 02:49:08;;;;;;;7.47;3.30;;;;;;;;;;5063467;28;20052;-67
2023/10/25 02:51:36;;;;;;;8.10;3.17;;;;;;;;;;5060846;28;20055;-65
2023/10/25 02:54:03;;;;;;;9.52;2.90;;;;;;;;;;5061585;28;20080;-69
2023/10/25 02:56:31;;;;;;;10.88;3.60;;;;;;;;;;5063058;28;20061;-66
2023/10/25 02:58:59;;;;;;;9.75;3.00;;;;;;;;;;5059092;28;20064;-69
2023/10/25 03:01:26;;;;;;;9.48;3.05;;;;;;;;;;5059875;28;20052;-66
2023/10/25 03:03:53;;;;;;;10.48;3.25;;;;;;;;;;5059615;28;20494;-67
2023/10/25 03:06:22;;;;;;;9.23;3.25;;;;;;;;;;5058836;28;20515;-66
2023/10/25 03:08:49;;;;;;;12.68;3.92;;;;;;;;;;5062800;28;20136;-67
2023/10/25 03:11:17;;;;;;;10.00;3.92;;;;;;;;;;5061240;28;20052;-65
2023/10/25 03:13:44;;;;;;;5.97;3.55;;;;;;;;;;5068447;28;20155;-66
2023/10/25 03:16:13;;;;;;;9.05;3.60;;;;;;;;;;5054809;28;20122;-66
2023/10/25 03:18:40;;;;;;;7.03;3.40;;;;;;;;;;5057554;28;20041;-67
2023/10/25 03:21:07;;;;;;;9.57;3.47;;;;;;;;;;5065128;28;20061;-66
2023/10/25 03:23:36;;;;;;;8.75;3.28;;;;;;;;;;5052830;28;20061;-66
2023/10/25 03:26:05;;;;;;;6.32;3.22;;;;;;;;;;5061377;28;20060;-69
2023/10/25 03:28:32;;;;;;;7.72;3.45;;;;;;;;;;5066814;28;20036;-68
2023/10/25 03:30:59;;;;;;;9.85;3.88;;;;;;;;;;5058581;28;20072;-66
2023/10/25 03:33:27;;;;;;;8.95;3.45;;;;;;;;;;5064290;28;20040;-66
2023/10/25 03:35:54;;;;;;;12.48;3.88;;;;;;;;;;5061106;28;20052;-65
2023/10/25 03:38:22;;;;;;;9.05;3.80;;;;;;;;;;5053525;28;20049;-66
2023/10/25 03:40:50;;;;;;;9.88;4.43;;;;;;;;;;5061920;28;20399;-66
2023/10/25 03:43:18;;;;;;;12.57;4.25;;;;;;;;;;5069529;28;20388;-66
2023/10/25 03:45:45;;;;;;;10.73;4.22;;;;;;;;;;5061421;28;20048;-67
2023/10/25 03:48:12;;;;;;;8.05;4.35;;;;;;;;;;5066705;28;20052;-65
2023/10/25 03:50:39;;;;;;;12.63;4.63;;;;;;;;;;5058877;28;20127;-66
2023/10/25 03:53:07;;;;;;;10.32;4.90;;;;;;;;;;5061244;28;20101;-66
2023/10/25 03:55:34;;;;;;;12.20;5.22;;;;;;;;;;5054400;28;20457;-66
2023/10/25 03:58:02;;;;;;;14.95;5.70;;;;;;;;;;5058846;28;20048;-66
2023/10/25 04:00:30;;;;;;;13.13;6.05;;;;;;;;;;5058434;28;20059;-66
2023/10/25 04:02:57;;;;;;;13.30;6.03;;;;;;;;;;5061883;28;20059;-66
2023/10/25 04:05:25;;;;;;;13.70;6.15;;;;;;;;;;5059391;28;20614;-67
2023/10/25 04:07:52;;;;;;;11.68;5.90;;;;;;;;;;5063625;28;20050;-68
2023/10/25 04:10:20;;;;;;;15.55;6.00;;;;;;;;;;5060331;28;20104;-67
2023/10/25 04:12:47;;;;;;;15.55;5.88;;;;;;;;;;5065728;28;20052;-66
2023/10/25 04:15:15;;;;;;;13.82;6.28;;;;;;;;;;5063107;28;20514;-67
2023/10/25 04:17:43;;;;;;;15.57;5.53;;;;;;;;;;5067659;28;20059;-67
2023/10/25 04:20:11;;;;;;;10.95;5.57;;;;;;;;;;5058128;28;20048;-66
2023/10/25 04:22:38;;;;;;;16.00;6.03;;;;;;;;;;5063616;28;20138;-67
2023/10/25 04:25:06;;;;;;;10.27;5.43;;;;;;;;;;5061363;28;20052;-66
2023/10/25 04:27:33;;;;;;;12.48;5.97;;;;;;;;;;5057408;28;20514;-68
2023/10/25 04:30:00;;;;;;;12.57;6.45;;;;;;;;;;5061488;28;20045;-67
2023/10/25 04:32:30;;;;;;;18.60;6.35;;;;;;;;;;5062979;28;20476;-66
2023/10/25 04:34:57;;;;;;;14.25;6.85;;;;;;;;;;5060199;28;20052;-67
2023/10/25 04:37:24;;;;;;;13.40;6.78;;;;;;;;;;5061728;28;20059;-66
2023/10/25 04:39:51;;;;;;;14.93;6.72;;;;;;;;;;5068072;28;20048;-66
2023/10/25 04:42:19;;;;;;;17.85;7.57;;;;;;;;;;5061955;28;20488;-66
2023/10/25 04:44:46;;;;;;;19.95;8.00;;;;;;;;;;5060072;28;20048;-66
2023/10/25 04:47:13;;;;;;;19.27;8.82;;;;;;;;;;5057156;28;20045;-67
2023/10/25 04:49:42;;;;;;;19.88;9.15;;;;;;;;;;5064759;28;20053;-69
2023/10/25 04:52:09;;;;;;;18.17;8.57;;;;;;;;;;5060734;28;20488;-66
2023/10/25 04:54:36;;;;;;;17.88;9.18;;;;;;;;;;5061478;28;20059;-68
2023/10/25 04:57:04;;;;;;;18.88;9.02;;;;;;;;;;5053766;28;20408;-67
2023/10/25 04:59:31;;;;;;;28.40;10.55;;;;;;;;;;5054914;28;20053;-66
2023/10/25 05:01:58;;;;;;;20.75;9.88;;;;;;;;;;5059800;28;20037;-66
2023/10/25 05:04:25;;;;;;;21.05;10.35;;;;;;;;;;5058569;28;20052;-66
2023/10/25 05:06:54;;;;;;;20.08;10.05;;;;;;;;;;5061293;28;20044;-65
2023/10/25 05:09:22;;;;;;;21.45;9.82;;;;;;;;;;5062179;28;20052;-66
2023/10/25 05:11:56;;;;;;;21.10;9.75;;;;;;;;;;5057662;28;20041;-65
2023/10/25 05:14:24;;;;;;;18.50;9.75;;;;;;;;;;5058710;28;20488;-66
2023/10/25 05:16:51;;;;;;;21.38;9.10;;;;;;;;;;5066199;28;20044;-66
2023/10/25 05:19:18;;;;;;;20.10;9.82;;;;;;;;;;5063991;28;20051;-67
2023/10/25 05:21:49;;;;;;;27.02;9.52;;;;;;;;;;5060640;28;20048;-66
2023/10/25 05:24:18;;;;;;;22.58;9.52;;;;;;;;;;5057951;28;20049;-66
2023/10/25 05:26:46;;;;;;;21.17;9.45;;;;;;;;;;5059237;28;20059;-66
2023/10/25 05:29:13;;;;;;;20.20;9.73;;;;;;;;;;5065673;28;20120;-68
2023/10/25 05:31:42;;;;;;;23.38;9.02;;;;;;;;;;5060690;28;20051;-66
2023/10/25 05:34:10;;;;;;;22.85;9.35;;;;;;;;;;5054585;28;20057;-65
2023/10/25 05:36:38;;;;;;;16.27;8.80;;;;;;;;;;5054953;28;20068;-68
2023/10/25 05:39:05;;;;;;;21.85;8.88;;;;;;;;;;5058697;28;20485;-65
2023/10/25 05:41:36;;;;;;;21.17;9.35;;;;;;;;;;5053091;28;20493;-65
2023/10/25 05:44:08;;;;;;;21.77;9.82;;;;;;;;;;5062216;28;20052;-66
2023/10/25 05:46:35;;;;;;;20.48;9.57;;;;;;;;;;5057927;28;20052;-67
2023/10/25 05:49:03;;;;;;;22.38;9.00;;;;;;;;;;5060252;28;20049;-65
2023/10/25 05:51:30;;;;;;;19.27;8.98;;;;;;;;;;5063492;28;20063;-66
2023/10/25 05:53:58;;;;;;;18.33;9.18;;;;;;;;;;5064571;28;20055;-67
2023/10/25 05:56:26;;;;;;;18.17;8.38;;;;;;;;;;5057734;28;20218;-66
2023/10/25 05:58:56;;;;;;;16.33;8.55;;;;;;;;;;5061446;28;20044;-65
2023/10/25 06:01:39;;;;;;;19.13;9.10;;;;;;;;;;5061800;28;20041;-66
2023/10/25 06:04:07;;;;;;;19.08;8.98;;;;;;;;;;5061654;28;20048;-66
2023/10/25 06:06:34;;;;;;;14.43;8.52;;;;;;;;;;5062906;28;20053;-65
2023/10/25 06:09:02;;;;;;;22.10;9.25;;;;;;;;;;5062747;28;20515;-65
2023/10/25 06:11:30;;;;;;;17.30;9.38;;;;;;;;;;5058297;28;20049;-65
2023/10/25 06:13:59;;;;;;;15.90;8.88;;;;;;;;;;5067507;28;20045;-66
2023/10/25 06:16:26;;;;;;;20.38;8.80;;;;;;;;;;5063175;28;20508;-66
2023/10/25 06:18:53;;;;;;;24.38;8.95;;;;;;;;;;5061761;28;20496;-65
2023/10/25 06:21:21;;;;;;;16.52;8.05;;;;;;;;;;5062102;28;20058;-66
2023/10/25 06:23:48;;;;;;;19.67;9.00;;;;;;;;;;5062713;28;20048;-65
2023/10/25 06:26:15;;;;;;;14.52;8.23;;;;;;;;;;5054966;28;20064;-66
2023/10/25 06:28:42;;;;;;;20.52;8.95;;;;;;;;;;5055645;28;20049;-66
2023/10/25 06:31:13;;;;;;;20.52;8.85;;;;;;;;;;5055389;28;20049;-66
2023/10/25 06:33:41;;;;;;;21.25;8.27;;;;;;;;;;5061394;28;20040;-65
2023/10/25 06:36:09;;;;;;;15.52;7.88;;;;;;;;;;5063631;28;20053;-66
2023/10/25 06:38:37;;;;;;;16.27;8.13;;;;;;;;;;5060760;28;20060;-68
2023/10/25 06:41:04;;;;;;;15.05;8.00;;;;;;;;;;5063889;28;20045;-66
2023/10/25 06:43:32;;;;;;;17.50;8.02;;;;;;;;;;5064906;28;20130;-66
2023/10/25 06:46:00;;;;;;;16.67;7.55;;;;;;;;;;5069886;28;20128;-65
2023/10/25 06:48:29;;;;;;;13.90;7.90;;;;;;;;;;5061622;28;20053;-66
2023/10/25 06:50:58;;;;;;;19.38;7.97;;;;;;;;;;5051532;28;20059;-66
2023/10/25 06:53:26;;;;;;;15.75;7.15;;;;;;;;;;5054466;28;20053;-66
2023/10/25 06:55:53;;;;;;;12.02;7.15;;;;;;;;;;5065971;28;20049;-65
2023/10/25 06:58:21;;;;;;;12.93;7.00;;;;;;;;;;5056106;28;20056;-66
2023/10/25 07:00:49;;;;;;;14.00;7.82;;;;;;;;;;5058826;28;20098;-66
2023/10/25 07:03:18;;;;;;;16.92;7.13;;;;;;;;;;5058880;28;20527;-66
2023/10/25 07:05:48;;;;;;;17.85;7.20;;;;;;;;;;5059765;28;20438;-66
2023/10/25 07:08:16;;;;;;;20.70;7.70;;;;;;;;;;5063519;28;20061;-66
2023/10/25 07:10:43;;;;;;;16.10;7.15;;;;;;;;;;5065776;28;20041;-65
2023/10/25 07:13:10;;;;;;;15.10;6.82;;;;;;;;;;5052868;28;20060;-65
2023/10/25 07:15:38;;;;;;;14.48;6.28;;;;;;;;;;5061192;28;20045;-67
2023/10/25 07:18:05;;;;;;;12.27;6.50;;;;;;;;;;5061694;28;20052;-66
2023/10/25 07:20:32;;;;;;;18.00;6.82;;;;;;;;;;5065771;28;20048;-66
2023/10/25 07:23:01;;;;;;;13.90;6.95;;;;;;;;;;5057933;28;20052;-67
2023/10/25 07:25:28;;;;;;;12.23;6.15;;;;;;;;;;5066651;28;20408;-68
2023/10/25 07:27:55;;;;;;;12.95;6.15;;;;;;;;;;5066056;28;20048;-67
2023/10/25 07:30:23;;;;;;;12.90;5.75;;;;;;;;;;5060801;28;20051;-65
2023/10/25 07:32:50;;;;;;;17.55;6.28;;;;;;;;;;5060870;28;20056;-66
2023/10/25 07:35:17;;;;;;;14.02;6.95;;;;;;;;;;5054040;28;20498;-66
2023/10/25 07:37:44;;;;;;;10.73;6.32;;;;;;;;;;5064731;28;20041;-65
2023/10/25 07:40:14;;;;;;;10.75;6.43;;;;;;;;;;5057287;28;20135;-66
2023/10/25 07:42:41;;;;;;;15.70;6.45;;;;;;;;;;5058878;28;20049;-65
2023/10/25 07:45:09;;;;;;;11.82;5.93;;;;;;;;;;5053550;28;20062;-66
2023/10/25 07:47:36;;;;;;;16.13;5.68;;;;;;;;;;5059818;28;20714;-67
2023/10/25 07:50:05;;;;;;;14.02;5.65;;;;;;;;;;5054299;28;20053;-66
2023/10/25 07:52:33;;;;;;;11.27;4.93;;;;;;;;;;5055800;28;20048;-67
2023/10/25 07:55:00;;;;;;;10.55;5.53;;;;;;;;;;5056810;28;20063;-67
2023/10/25 07:57:28;;;;;;;11.85;5.18;;;;;;;;;;5059804;28;20064;-66
2023/10/25 07:59:56;;;;;;;10.73;5.18;;;;;;;;;;5054435;28;20041;-65
2023/10/25 08:02:23;;;;;;;8.93;5.20;;;;;;;;;;5062198;28;20052;-66
2023/10/25 08:04:50;;;;;;;12.52;5.35;;;;;;;;;;5059232;28;20049;-67
2023/10/25 08:07:18;;;;;;;10.32;5.57;;;;;;;;;;5061146;28;20048;-66
2023/10/25 08:09:47;;;;;;;11.75;5.07;;;;;;;;;;5057117;28;20048;-66
2023/10/25 08:12:15;;;;;;;11.55;4.97;;;;;;;;;;5059169;28;20114;-67
2023/10/25 08:14:44;;;;;;;12.20;4.65;;;;;;;;;;5063677;28;20443;-67
2023/10/25 08:17:11;;;;;;;10.25;4.93;;;;;;;;;;5053017;28;20053;-66
2023/10/25 08:19:38;;;;;;;12.25;4.72;;;;;;;;;;5055166;28;20060;-66
2023/10/25 08:22:06;;;;;;;9.80;4.75;;;;;;;;;;5061760;28;20048;-66
2023/10/25 08:24:34;;;;;;;10.10;4.90;;;;;;;;;;5055047;28;20613;-66
2023/10/25 08:27:01;;;;;;;12.55;4.55;;;;;;;;;;5064188;28;20051;-67
2023/10/25 08:29:28;;;;;;;16.10;5.10;;;;;;;;;;5056669;28;20053;-65
2023/10/25 08:31:57;;;;;;;11.30;5.07;;;;;;;;;;5056992;28;20048;-66
2023/10/25 08:34:24;;;;;;;12.63;4.90;;;;;;;;;;5057593;28;20055;-65
2023/10/25 08:36:52;;;;;;;9.48;5.22;;;;;;;;;;5060720;28;20041;-69
2023/10/25 08:39:21;;;;;;;8.35;4.72;;;;;;;;;;5058946;28;20049;-65
2023/10/25 08:41:49;;;;;;;12.35;5.28;;;;;;;;;;5059067;28;20132;-66
2023/10/25 08:44:16;;;;;;;7.68;4.22;;;;;;;;;;5061932;28;20172;-67
2023/10/25 08:46:44;;;;;;;9.88;4.70;;;;;;;;;;5064409;28;20047;-65
2023/10/25 08:49:13;;;;;;;9.15;4.30;;;;;;;;;;5063056;28;20063;-65
2023/10/25 08:51:44;;;;;;;9.40;4.75;;;;;;;;;;5058009;28;20056;-67
2023/10/25 08:54:12;;;;;;;12.15;4.93;;;;;;;;;;5055632;28;20052;-67
2023/10/25 08:56:39;;;;;;;8.35;4.43;;;;;;;;;;5058706;28;20041;-66
2023/10/25 08:59:07;;;;;;;8.63;4.60;;;;;;;;;;5060417;28;20547;-66
2023/10/25 09:01:34;;;;;;;7.65;5.13;;;;;;;;;;5063211;28;20056;-65
2023/10/25 09:04:06;;;;;;;8.38;4.63;;;;;;;;;;5055039;28;20048;-66
2023/10/25 09:06:35;;;;;;;10.52;4.85;;;;;;;;;;5058464;28;20053;-65
2023/10/25 09:09:05;;;;;;;8.90;4.30;;;;;;;;;;5063928;28;20519;-66
2023/10/25 09:11:42;;;;;;;8.73;4.75;;;;;;;;;;5050903;28;20040;-69
2023/10/25 09:14:10;;;;;;;9.10;4.63;;;;;;;;;;5055856;28;20053;-67
2023/10/25 09:16:38;;;;;;;12.35;4.40;;;;;;;;;;5058630;28;20048;-67
2023/10/25 09:19:07;;;;;;;8.98;4.38;;;;;;;;;;5060313;28;20075;-65
2023/10/25 09:21:35;;;;;;;8.80;4.63;;;;;;;;;;5059632;28;20510;-67
2023/10/25 09:24:07;;;;;;;7.82;4.28;;;;;;;;;;5052287;28;20064;-67
2023/10/25 09:26:35;;;;;;;10.10;5.03;;;;;;;;;;5059504;28;20052;-66
2023/10/25 09:29:03;;;;;;;9.80;4.53;;;;;;;;;;5059342;28;20057;-66
2023/10/25 09:31:31;;;;;;;14.15;4.40;;;;;;;;;;5057791;28;20507;-66
2023/10/25 09:34:00;;;;;;;12.05;4.70;;;;;;;;;;5055668;28;20415;-66
2023/10/25 09:36:28;;;;;;;10.98;4.70;;;;;;;;;;5055416;28;20510;-66
2023/10/25 09:38:57;;;;;;;11.30;4.70;;;;;;;;;;5062445;28;20076;-65
2023/10/25 09:41:27;;;;;;;14.77;4.78;;;;;;;;;;5057551;28;20076;-66
2023/10/25 09:43:58;;;;;;;11.90;4.70;;;;;;;;;;5059483;28;20442;-66
2023/10/25 09:46:30;;;;;;;9.57;4.50;;;;;;;;;;5060888;28;20052;-65
2023/10/25 09:49:01;;;;;;;8.45;4.45;;;;;;;;;;5058489;28;20053;-66
2023/10/25 09:51:48;;;;;;;8.63;4.50;;;;;;;;;;5063354;28;20451;-66
2023/10/25 09:54:20;;;;;;;9.10;4.47;;;;;;;;;;5054962;28;20056;-66
2023/10/25 09:56:49;;;;;;;12.40;4.68;;;;;;;;;;5060738;28;20056;-66
2023/10/25 09:59:17;;;;;;;13.88;4.78;;;;;;;;;;5060553;28;20051;-66
2023/10/25 10:01:45;;;;;;;12.90;4.32;;;;;;;;;;5061382;28;20053;-66
2023/10/25 10:04:15;;;;;;;8.63;4.57;;;;;;;;;;5052056;28;20060;-66
2023/10/25 10:06:46;;;;;;;8.82;4.22;;;;;;;;;;5054092;28;20045;-66
2023/10/25 10:09:18;;;;;;;9.73;4.65;;;;;;;;;;5052649;28;20061;-69
2023/10/25 10:11:48;;;;;;;11.85;4.45;;;;;;;;;;5060218;28;20056;-66
2023/10/25 10:14:28;;;;;;;8.18;4.57;;;;;;;;;;5059581;28;20053;-66
2023/10/25 10:16:59;;;;;;;12.63;4.18;;;;;;;;;;5054513;28;20049;-66
2023/10/25 10:19:27;;;;;;;8.57;4.40;;;;;;;;;;5056358;28;20110;-67
2023/10/25 10:22:04;;;;;;;8.32;4.10;;;;;;;;;;5065264;28;20044;-65
2023/10/25 10:24:41;;;;;;;8.93;4.10;;;;;;;;;;5063796;28;20492;-66
2023/10/25 10:27:10;;;;;;;12.75;4.00;;;;;;;;;;5065262;28;20687;-67
2023/10/25 10:29:41;;;;;;;8.32;3.58;;;;;;;;;;5070170;28;20443;-67
2023/10/25 10:32:09;;;;;;;9.52;3.58;;;;;;;;;;5061886;28;20401;-66
2023/10/25 10:34:43;;;;;;;8.23;3.58;;;;;;;;;;5062621;28;20048;-67
2023/10/25 10:37:11;;;;;;;8.30;3.45;;;;;;;;;;5064203;28;20053;-66
2023/10/25 10:39:39;;;;;;;8.07;3.17;;;;;;;;;;5062832;28;20044;-67
2023/10/25 10:42:06;;;;;;;7.28;3.72;;;;;;;;;;5066133;28;20040;-66
2023/10/25 10:44:38;;;;;;;8.43;3.60;;;;;;;;;;5066259;28;20058;-66
2023/10/25 10:47:09;;;;;;;6.70;3.40;;;;;;;;;;5057193;28;20102;-67
2023/10/25 10:49:39;;;;;;;8.77;3.50;;;;;;;;;;5064864;28;20570;-66
2023/10/25 10:52:07;;;;;;;8.00;4.05;;;;;;;;;;5064398;28;20049;-67
2023/10/25 10:54:34;;;;;;;15.02;3.63;;;;;;;;;;5061601;28;20113;-66
2023/10/25 10:57:02;;;;;;;9.45;3.30;;;;;;;;;;5061268;28;20400;-67
2023/10/25 10:59:29;;;;;;;7.22;3.40;;;;;;;;;;5063346;28;20538;-67
2023/10/25 11:01:59;;;;;;;12.60;3.55;;;;;;;;;;5061567;28;20055;-66
2023/10/25 11:04:26;;;;;;;9.20;3.38;;;;;;;;;;5060893;28;20048;-66
2023/10/25 11:06:53;;;;;;;7.90;3.53;;;;;;;;;;5064049;28;20068;-66
2023/10/25 11:09:21;;;;;;;6.75;3.00;;;;;;;;;;5066154;28;20063;-66
2023/10/25 11:11:49;;;;;;;5.20;3.15;;;;;;;;;;5063578;28;20446;-67
2023/10/25 11:14:16;;;;;;;4.95;3.10;;;;;;;;;;5058982;28;20049;-67
2023/10/25 11:16:43;;;;;;;11.68;3.53;;;;;;;;;;5054663;28;20388;-66
2023/10/25 11:19:12;;;;;;;7.40;3.20;;;;;;;;;;5069418;28;20056;-67
2023/10/25 11:21:39;;;;;;;7.13;3.03;;;;;;;;;;5068058;28;20051;-66
2023/10/25 11:24:07;;;;;;;6.72;3.05;;;;;;;;;;5070097;28;20139;-68
2023/10/25 11:26:40;;;;;;;6.28;2.70;;;;;;;;;;5066057;28;20049;-67
2023/10/25 11:29:10;;;;;;;6.10;2.75;;;;;;;;;;5065788;28;20163;-67
2023/10/25 11:31:37;;;;;;;10.00;3.05;;;;;;;;;;5050337;28;20527;-68
2023/10/25 11:34:04;;;;;;;4.65;3.00;;;;;;;;;;5058436;28;20048;-67
2023/10/25 11:36:33;;;;;;;6.18;2.92;;;;;;;;;;5054814;28;20544;-67
2023/10/25 11:39:07;;;;;;;7.70;3.22;;;;;;;;;;5066343;28;20389;-67
2023/10/25 11:41:34;;;;;;;5.50;2.63;;;;;;;;;;5065540;28;20044;-66
2023/10/25 11:44:02;;;;;;;6.68;2.95;;;;;;;;;;5061814;28;20102;-66
2023/10/25 11:46:30;;;;;;;6.65;3.72;;;;;;;;;;5061086;28;20456;-66
2023/10/25 11:49:00;;;;;;;6.95;3.08;;;;;;;;;;5064639;28;20113;-66
2023/10/25 11:51:27;;;;;;;5.78;3.08;;;;;;;;;;5059580;28;20055;-66
2023/10/25 11:53:56;;;;;;;5.78;2.47;;;;;;;;;;5061707;28;20117;-68
2023/10/25 11:56:24;;;;;;;4.63;2.60;;;;;;;;;;5057993;28;20483;-67
2023/10/25 11:58:51;;;;;;;9.20;3.65;;;;;;;;;;5061311;28;20053;-66
2023/10/25 12:01:19;;;;;;;5.63;2.70;;;;;;;;;;5054398;28;20397;-66
2023/10/25 12:03:46;;;;;;;6.65;2.95;;;;;;;;;;5057078;28;20053;-67
2023/10/25 12:06:13;;;;;;;5.25;2.60;;;;;;;;;;5056077;28;20412;-67
2023/10/25 12:08:41;;;;;;;6.47;2.80;;;;;;;;;;5061258;28;20052;-67
2023/10/25 12:11:10;;;;;;;7.43;2.85;;;;;;;;;;5062871;28;20055;-66
2023/10/25 12:13:37;;;;;;;6.13;2.88;;;;;;;;;;5061158;28;20460;-68
2023/10/25 12:16:05;;;;;;;7.50;3.03;;;;;;;;;;5064726;28;20049;-66
2023/10/25 12:18:33;;;;;;;5.65;2.67;;;;;;;;;;5058251;28;20080;-68
2023/10/25 12:21:01;;;;;;;8.60;2.63;;;;;;;;;;5062250;28;20131;-66
2023/10/25 12:23:28;;;;;;;6.60;2.85;;;;;;;;;;5063293;28;20480;-66
2023/10/25 12:25:56;;;;;;;7.88;2.72;;;;;;;;;;5059729;28;20493;-66
2023/10/25 12:28:24;;;;;;;5.00;2.25;;;;;;;;;;5062801;28;20044;-67
2023/10/25 12:30:51;;;;;;;6.22;2.67;;;;;;;;;;5061969;28;20480;-66
2023/10/25 12:33:19;;;;;;;6.97;2.97;;;;;;;;;;5064197;28;20559;-66
2023/10/25 12:35:46;;;;;;;10.85;2.95;;;;;;;;;;5057248;28;20052;-66
2023/10/25 12:38:13;;;;;;;7.97;2.80;;;;;;;;;;5063744;28;20690;-67
2023/10/25 12:40:40;;;;;;;10.32;3.20;;;;;;;;;;5059911;28;20110;-66
2023/10/25 12:43:08;;;;;;;5.40;2.90;;;;;;;;;;5053438;28;20053;-65
2023/10/25 12:45:36;;;;;;;8.23;3.10;;;;;;;;;;5059837;28;20047;-67
2023/10/25 12:48:04;;;;;;;12.15;3.40;;;;;;;;;;5064918;28;20059;-66
2023/10/25 12:50:31;;;;;;;7.05;3.28;;;;;;;;;;5060291;28;20514;-67
2023/10/25 12:52:58;;;;;;;6.60;3.30;;;;;;;;;;5061180;28;20211;-66
2023/10/25 12:55:25;;;;;;;10.85;3.50;;;;;;;;;;5065692;28;20052;-66
2023/10/25 12:57:53;;;;;;;7.07;3.17;;;;;;;;;;5060041;28;20056;-67
2023/10/25 13:00:21;;;;;;;7.03;3.13;;;;;;;;;;5057846;28;20056;-66
2023/10/25 13:02:50;;;;;;;8.95;2.92;;;;;;;;;;5051888;28;20049;-67
2023/10/25 13:05:17;;;;;;;7.18;3.20;;;;;;;;;;5061469;28;20075;-67
2023/10/25 13:07:44;;;;;;;6.10;3.22;;;;;;;;;;5061758;28;20106;-66
2023/10/25 13:10:12;;;;;;;9.88;3.30;;;;;;;;;;5061895;28;20105;-67
2023/10/25 13:12:39;;;;;;;7.50;3.55;;;;;;;;;;5058106;28;20049;-66
2023/10/25 13:15:07;;;;;;;7.47;3.35;;;;;;;;;;5059459;28;20049;-68
2023/10/25 13:17:34;;;;;;;7.80;3.92;;;;;;;;;;5063339;28;20041;-66
2023/10/25 13:20:03;;;;;;;11.45;3.60;;;;;;;;;;5057135;28;20045;-67
2023/10/25 13:22:31;;;;;;;8.48;3.45;;;;;;;;;;5059899;28;20106;-68
2023/10/25 13:24:58;;;;;;;8.48;3.80;;;;;;;;;;5057791;28;20048;-66
2023/10/25 13:27:25;;;;;;;7.78;3.30;;;;;;;;;;5058981;28;20109;-66
2023/10/25 13:29:55;;;;;;;6.88;3.88;;;;;;;;;;5056925;28;20044;-66
2023/10/25 13:32:25;;;;;;;8.32;3.50;;;;;;;;;;5058801;28;20528;-66
2023/10/25 13:34:52;;;;;;;7.85;3.25;;;;;;;;;;5056800;28;20056;-66
2023/10/25 13:37:21;;;;;;;5.82;3.00;;;;;;;;;;5060886;28;20055;-66
2023/10/25 13:39:48;;;;;;;6.82;3.58;;;;;;;;;;5061319;28;20057;-66
2023/10/25 13:42:16;;;;;;;6.47;3.10;;;;;;;;;;5057527;28;20072;-66
2023/10/25 13:44:44;;;;;;;7.38;3.33;;;;;;;;;;5066764;28;20045;-67
2023/10/25 13:47:11;;;;;;;8.52;3.33;;;;;;;;;;5058276;28;20061;-67
2023/10/25 13:49:39;;;;;;;7.13;3.30;;;;;;;;;;5060788;28;20293;-66
2023/10/25 13:52:07;;;;;;;5.63;2.88;;;;;;;;;;5062488;28;20396;-67
2023/10/25 13:54:35;;;;;;;12.48;3.20;;;;;;;;;;5054408;28;20131;-66
2023/10/25 13:57:03;;;;;;;7.03;3.22;;;;;;;;;;5065353;28;20057;-66
2023/10/25 13:59:30;;;;;;;7.55;3.70;;;;;;;;;;5064950;28;20082;-67
2023/10/25 14:01:57;;;;;;;9.27;3.75;;;;;;;;;;5066084;28;20106;-67
2023/10/25 14:04:25;;;;;;;9.15;4.18;;;;;;;;;;5058653;28;20488;-67
2023/10/25 14:06:52;;;;;;;11.48;4.28;;;;;;;;;;5065869;28;20503;-66
2023/10/25 14:09:19;;;;;;;10.52;4.45;;;;;;;;;;5060654;28;20060;-67
2023/10/25 14:11:48;;;;;;;10.55;3.70;;;;;;;;;;5057068;28;20063;-67
2023/10/25 14:14:15;;;;;;;14.38;4.97;;;;;;;;;;5064151;28;20053;-67
2023/10/25 14:16:44;;;;;;;11.05;4.43;;;;;;;;;;5059003;28;20064;-67
2023/10/25 14:19:11;;;;;;;11.60;4.60;;;;;;;;;;5063946;28;20048;-67
2023/10/25 14:21:39;;;;;;;12.65;4.38;;;;;;;;;;5056058;28;20045;-66
2023/10/25 14:24:07;;;;;;;16.92;4.75;;;;;;;;;;5062641;28;20045;-66
2023/10/25 14:26:34;;;;;;;9.90;4.00;;;;;;;;;;5061701;28;20044;-67
2023/10/25 14:29:03;;;;;;;6.45;3.28;;;;;;;;;;5061727;28;20056;-67
2023/10/25 14:31:30;;;;;;;7.75;3.20;;;;;;;;;;5057752;28;20048;-68
2023/10/25 14:33:57;;;;;;;8.88;4.22;;;;;;;;;;5059959;28;20074;-66
2023/10/25 14:36:25;;;;;;;10.20;4.50;;;;;;;;;;5051653;28;20051;-66
2023/10/25 14:38:52;;;;;;;9.18;3.92;;;;;;;;;;5064498;28;20041;-67
2023/10/25 14:41:20;;;;;;;9.00;4.00;;;;;;;;;;5063424;28;20407;-67